Time;durP1;ratioP1;P1;durP2;ratioP2;P2;SDS_P1;SDS_P2;PMS_P1;PMS_P2;Temp;Humidity;BMP_temperature;BMP_pressure;BME280_temperature;BME280_humidity;BME280_pressure;Samples;Min_cycle;Max_cycle;Signal;HPM_P1;HPM_P2
2023/07/16 00:00:22;;;;;;;15.20;4.65;;;;;;;29.05;56.91;100660.19;5058964;28;20055;-79
2023/07/16 00:03:13;;;;;;;14.70;4.80;;;;;;;28.83;58.77;100668.38;5059413;28;20033;-79
2023/07/16 00:05:58;;;;;;;7.68;4.28;;;;;;;28.23;60.98;100664.31;5058717;28;20052;-79
2023/07/16 00:08:43;;;;;;;13.82;5.25;;;;;;;28.31;60.56;100664.91;5061842;28;20064;-80
2023/07/16 00:11:28;;;;;;;11.60;4.70;;;;;;;28.36;60.17;100664.41;5060828;28;20063;-78
2023/07/16 00:14:12;;;;;;;8.32;4.63;;;;;;;28.35;60.21;100663.59;5073507;28;20417;-78
2023/07/16 00:16:57;;;;;;;8.70;4.53;;;;;;;28.32;60.79;100663.69;5062472;28;20060;-79
2023/07/16 00:19:42;;;;;;;14.15;5.05;;;;;;;28.20;60.76;100661.59;5060786;28;20044;-78
2023/07/16 00:22:27;;;;;;;15.55;5.53;;;;;;;28.15;61.26;100659.31;5058641;28;20041;-78
2023/07/16 00:25:12;;;;;;;18.25;5.68;;;;;;;27.90;62.45;100657.09;5074716;28;20040;-79
2023/07/16 00:27:57;;;;;;;5.65;3.78;;;;;;;27.95;61.82;100668.56;5073638;28;20051;-78
2023/07/16 00:30:41;;;;;;;11.65;4.20;;;;;;;27.94;61.56;100661.38;5064277;28;20043;-77
2023/07/16 00:33:26;;;;;;;11.45;4.95;;;;;;;27.87;62.01;100663.56;5061989;28;20524;-78
2023/07/16 00:36:13;;;;;;;14.40;4.78;;;;;;;27.85;62.21;100661.19;5058694;28;20052;-78
2023/07/16 00:38:57;;;;;;;9.60;5.25;;;;;;;27.84;61.97;100659.63;5062748;28;20044;-77
2023/07/16 00:41:42;;;;;;;11.65;5.60;;;;;;;27.73;62.45;100659.09;5062379;28;20332;-78
2023/07/16 00:44:26;;;;;;;12.30;5.90;;;;;;;27.91;62.39;100655.88;5073627;28;20056;-79
2023/07/16 00:47:12;;;;;;;6.38;4.20;;;;;;;27.91;61.95;100653.88;5050014;28;20048;-78
2023/07/16 00:49:57;;;;;;;10.52;4.25;;;;;;;27.92;61.76;100652.66;5059978;28;20067;-78
2023/07/16 00:52:43;;;;;;;12.85;4.85;;;;;;;27.96;61.69;100644.97;5060243;28;20115;-78
2023/07/16 00:55:30;;;;;;;14.82;4.70;;;;;;;28.01;61.75;100638.06;5073652;28;20059;-78
2023/07/16 00:58:14;;;;;;;10.73;5.13;;;;;;;27.76;62.16;100647.03;5063786;28;20040;-80
2023/07/16 01:01:00;;;;;;;12.38;5.13;;;;;;;27.72;62.55;100643.53;5070998;28;20045;-79
2023/07/16 01:03:45;;;;;;;6.55;4.60;;;;;;;27.71;61.81;100647.56;5067337;28;20051;-80
2023/07/16 01:06:39;;;;;;;7.72;5.15;;;;;;;27.66;62.27;100642.47;5081337;28;20067;-80
2023/07/16 01:09:24;;;;;;;9.10;4.57;;;;;;;27.49;62.39;100632.44;5081111;28;20052;-80
2023/07/16 01:12:10;;;;;;;7.05;4.68;;;;;;;27.55;62.36;100639.13;5078307;28;20055;-80
2023/07/16 01:14:56;;;;;;;6.65;4.05;;;;;;;27.64;61.68;100637.31;5054431;28;20047;-80
2023/07/16 01:17:41;;;;;;;11.38;5.47;;;;;;;27.68;61.53;100639.25;5079862;28;20052;-80
2023/07/16 01:20:26;;;;;;;6.35;4.72;;;;;;;27.61;61.22;100634.63;5062928;28;20052;-79
2023/07/16 01:23:26;;;;;;;11.25;4.95;;;;;;;27.74;61.08;100641.09;5080653;28;20052;-79
2023/07/16 01:26:39;;;;;;;8.10;4.40;;;;;;;27.80;60.80;100642.16;5073585;28;20040;-79
2023/07/16 01:29:29;;;;;;;8.50;5.68;;;;;;;27.76;60.68;100633.06;5076807;28;20077;-79
2023/07/16 01:32:16;;;;;;;9.52;4.80;;;;;;;27.74;60.89;100635.50;5073135;28;20052;-79
2023/07/16 01:35:02;;;;;;;8.25;4.45;;;;;;;27.77;60.66;100629.06;5074303;28;20059;-79
2023/07/16 01:37:46;;;;;;;15.48;5.45;;;;;;;27.81;59.84;100629.75;5077236;28;20051;-79
2023/07/16 01:40:31;;;;;;;9.65;5.10;;;;;;;27.76;60.47;100626.69;5075352;28;20043;-79
2023/07/16 01:43:16;;;;;;;8.82;4.88;;;;;;;27.77;60.36;100629.06;5069055;28;20043;-79
2023/07/16 01:46:02;;;;;;;5.93;4.68;;;;;;;27.68;60.89;100626.09;5072908;28;20413;-79
2023/07/16 01:48:47;;;;;;;14.23;4.57;;;;;;;27.75;60.63;100620.31;5080905;28;20044;-79
2023/07/16 01:51:32;;;;;;;8.98;4.82;;;;;;;27.71;60.76;100622.41;5064933;28;20502;-79
2023/07/16 01:54:17;;;;;;;9.90;4.18;;;;;;;27.63;60.79;100610.59;5077470;28;20067;-79
2023/07/16 01:57:01;;;;;;;10.07;3.92;;;;;;;27.64;60.62;100614.19;5086056;28;20047;-79
2023/07/16 01:59:46;;;;;;;7.72;4.65;;;;;;;27.54;60.97;100604.81;5069189;28;20043;-79
2023/07/16 02:02:32;;;;;;;5.55;4.13;;;;;;;27.56;61.14;100607.19;5048971;28;20516;-79
2023/07/16 02:05:17;;;;;;;9.45;4.32;;;;;;;27.43;61.34;100604.22;5050936;28;20048;-79
2023/07/16 02:08:02;;;;;;;15.43;4.85;;;;;;;27.35;61.71;100602.03;5058762;28;20051;-79
2023/07/16 02:10:51;;;;;;;7.20;4.72;;;;;;;27.44;61.23;100605.81;5058504;28;20047;-79
2023/07/16 02:13:36;;;;;;;13.48;4.38;;;;;;;27.47;61.53;100606.97;5061318;28;20425;-79
2023/07/16 02:16:21;;;;;;;5.90;4.57;;;;;;;27.62;60.57;100606.25;5044900;28;20516;-79
2023/07/16 02:19:05;;;;;;;7.57;4.78;;;;;;;27.53;61.01;100608.81;5075594;28;20051;-79
2023/07/16 02:21:50;;;;;;;9.95;4.18;;;;;;;27.48;60.91;100597.38;5047123;28;20051;-79
2023/07/16 02:24:35;;;;;;;10.95;4.53;;;;;;;27.55;60.80;100600.03;5059015;28;20100;-79
2023/07/16 02:27:20;;;;;;;7.85;4.57;;;;;;;27.47;61.07;100599.38;5057559;28;20036;-79
2023/07/16 02:30:06;;;;;;;11.05;5.22;;;;;;;27.49;61.32;100605.34;5072646;28;20166;-79
2023/07/16 02:32:51;;;;;;;7.38;4.82;;;;;;;27.52;61.14;100604.47;5059400;28;20047;-79
2023/07/16 02:35:36;;;;;;;10.07;4.57;;;;;;;27.58;60.84;100605.53;5071992;28;20052;-79
2023/07/16 02:38:20;;;;;;;11.10;4.93;;;;;;;27.51;61.19;100608.50;5060992;28;20047;-79
2023/07/16 02:41:06;;;;;;;8.73;4.65;;;;;;;27.47;60.92;100607.75;5072980;28;20041;-78
2023/07/16 02:44:00;;;;;;;6.57;4.75;;;;;;;27.43;61.56;100614.66;5072047;28;20512;-78
2023/07/16 02:46:45;;;;;;;8.75;5.20;;;;;;;27.42;61.24;100608.28;5074752;28;20520;-78
2023/07/16 02:49:30;;;;;;;17.98;5.60;;;;;;;27.44;61.41;100610.63;5062435;28;20048;-78
2023/07/16 02:52:16;;;;;;;7.25;4.85;;;;;;;27.41;61.27;100603.09;5080495;28;20071;-78
2023/07/16 02:55:01;;;;;;;9.63;4.93;;;;;;;27.44;61.00;100605.03;5050733;28;20043;-78
2023/07/16 02:57:46;;;;;;;11.23;6.10;;;;;;;27.35;61.53;100608.41;5074547;28;20420;-78
2023/07/16 03:00:31;;;;;;;9.93;5.97;;;;;;;27.39;61.35;100605.53;5060372;28;20045;-78
2023/07/16 03:03:16;;;;;;;10.70;4.40;;;;;;;27.35;61.38;100597.25;5064095;28;20055;-78
2023/07/16 03:06:01;;;;;;;14.63;5.88;;;;;;;27.37;61.58;100614.38;5048499;28;20048;-78
2023/07/16 03:08:46;;;;;;;9.95;5.60;;;;;;;27.31;61.40;100612.50;5075216;28;20267;-77
2023/07/16 03:11:30;;;;;;;10.00;5.13;;;;;;;27.25;61.53;100609.44;5060324;28;20052;-78
2023/07/16 03:14:15;;;;;;;6.78;4.82;;;;;;;27.26;61.75;100605.44;5074260;28;20052;-78
2023/07/16 03:17:00;;;;;;;7.47;4.65;;;;;;;27.24;61.59;100608.66;5046042;28;20051;-78
2023/07/16 03:19:44;;;;;;;7.43;5.00;;;;;;;27.24;61.58;100614.22;5062111;28;20060;-77
2023/07/16 03:22:29;;;;;;;6.63;4.97;;;;;;;27.27;61.77;100611.81;5082336;22;20064;-76
2023/07/16 03:25:15;;;;;;;9.25;5.03;;;;;;;27.27;61.84;100607.00;5042609;28;20509;-77
2023/07/16 03:28:01;;;;;;;14.50;5.93;;;;;;;27.24;61.44;100613.44;5054743;28;20073;-76
2023/07/16 03:30:49;;;;;;;6.80;5.22;;;;;;;27.24;61.72;100611.44;5030439;28;20041;-76
2023/07/16 03:33:34;;;;;;;12.60;5.85;;;;;;;27.22;61.84;100607.53;5038846;28;20049;-77
2023/07/16 03:36:20;;;;;;;9.63;5.60;;;;;;;27.22;61.40;100601.94;5052276;28;20103;-76
2023/07/16 03:39:08;;;;;;;10.68;5.88;;;;;;;27.26;61.60;100608.22;5033939;28;20067;-76
2023/07/16 03:41:53;;;;;;;13.88;5.60;;;;;;;27.17;61.36;100610.81;5036703;28;20040;-76
2023/07/16 03:44:38;;;;;;;9.05;5.60;;;;;;;27.17;61.85;100614.38;5040682;28;20037;-77
2023/07/16 03:47:24;;;;;;;10.00;5.00;;;;;;;27.06;61.95;100619.41;5044086;28;20044;-77
2023/07/16 03:50:09;;;;;;;7.57;4.75;;;;;;;27.07;61.91;100618.16;5052975;28;20048;-77
2023/07/16 03:52:54;;;;;;;7.57;4.97;;;;;;;27.06;61.80;100619.41;5031518;28;20036;-77
2023/07/16 03:55:39;;;;;;;11.30;6.15;;;;;;;27.04;62.00;100615.47;5036992;28;20051;-77
2023/07/16 03:58:27;;;;;;;10.70;4.50;;;;;;;27.15;61.87;100619.63;5013461;28;20041;-76
2023/07/16 04:01:12;;;;;;;14.32;5.70;;;;;;;27.27;60.78;100617.41;5049061;28;20041;-76
2023/07/16 04:03:57;;;;;;;9.70;5.25;;;;;;;27.30;61.28;100617.31;5038302;28;20037;-76
2023/07/16 04:06:43;;;;;;;9.10;5.00;;;;;;;27.32;60.68;100625.25;5028519;28;20052;-77
2023/07/16 04:09:28;;;;;;;10.93;5.25;;;;;;;27.24;60.94;100625.41;5026391;28;20056;-76
2023/07/16 04:12:13;;;;;;;9.85;5.22;;;;;;;27.22;61.14;100630.66;5030567;28;20056;-76
2023/07/16 04:14:59;;;;;;;6.60;4.70;;;;;;;27.23;60.80;100628.63;5038753;28;20406;-77
2023/07/16 04:17:44;;;;;;;7.38;4.82;;;;;;;27.18;60.85;100626.34;5039204;28;20048;-76
2023/07/16 04:20:30;;;;;;;13.85;5.63;;;;;;;27.05;61.33;100639.38;5044378;28;20056;-77
2023/07/16 04:23:15;;;;;;;7.50;5.25;;;;;;;26.84;62.29;100634.97;5041190;28;20040;-78
2023/07/16 04:26:00;;;;;;;10.50;5.78;;;;;;;27.01;62.15;100633.09;5054257;28;20529;-77
2023/07/16 04:28:44;;;;;;;10.25;5.80;;;;;;;25.00;69.90;100637.75;5053159;28;20055;-77
2023/07/16 04:31:29;;;;;;;9.35;6.03;;;;;;;25.44;69.54;100632.03;5052359;28;20422;-78
2023/07/16 04:34:14;;;;;;;8.90;5.43;;;;;;;26.16;66.04;100638.13;5040466;28;20056;-77
2023/07/16 04:36:59;;;;;;;12.57;5.53;;;;;;;26.40;65.09;100633.41;5019709;28;20549;-77
2023/07/16 04:39:44;;;;;;;10.73;6.03;;;;;;;26.47;64.36;100638.03;5052569;28;20045;-78
2023/07/16 04:42:28;;;;;;;11.23;6.30;;;;;;;26.59;64.14;100651.38;5053495;28;20041;-77
2023/07/16 04:45:13;;;;;;;10.27;6.00;;;;;;;26.60;63.88;100644.59;5051782;28;20045;-77
2023/07/16 04:47:59;;;;;;;8.68;4.93;;;;;;;26.78;63.87;100653.41;5041158;28;20044;-78
2023/07/16 04:50:44;;;;;;;8.75;5.50;;;;;;;26.87;63.38;100645.28;5049567;28;20048;-77
2023/07/16 04:53:29;;;;;;;10.77;5.25;;;;;;;26.87;62.65;100645.28;5037899;28;20064;-77
2023/07/16 04:56:15;;;;;;;10.93;5.20;;;;;;;27.03;62.71;100652.97;5052605;28;20506;-77
2023/07/16 04:59:01;;;;;;;11.90;5.47;;;;;;;27.16;62.58;100651.13;5047534;28;20544;-77
2023/07/16 05:01:46;;;;;;;11.00;5.38;;;;;;;27.26;62.40;100652.13;5051833;28;20048;-78
2023/07/16 05:04:31;;;;;;;10.77;5.40;;;;;;;27.39;62.10;100651.03;5053084;28;20044;-78
2023/07/16 05:07:16;;;;;;;11.43;5.65;;;;;;;27.45;62.00;100648.50;5040601;28;20048;-78
2023/07/16 05:10:01;;;;;;;10.27;5.60;;;;;;;27.52;61.62;100640.81;5037933;28;20045;-78
2023/07/16 05:12:45;;;;;;;11.13;5.70;;;;;;;27.61;61.87;100646.59;5036169;28;20064;-77
2023/07/16 05:15:32;;;;;;;15.82;5.45;;;;;;;27.64;61.14;100653.28;5052066;28;20048;-78
2023/07/16 05:18:17;;;;;;;10.27;5.68;;;;;;;27.62;60.98;100652.97;5035340;28;20053;-78
2023/07/16 05:21:02;;;;;;;12.20;6.55;;;;;;;27.68;60.72;100665.19;5034947;28;20036;-78
2023/07/16 05:23:47;;;;;;;18.23;5.82;;;;;;;27.67;60.82;100663.63;5034885;28;20049;-78
2023/07/16 05:26:33;;;;;;;14.98;6.50;;;;;;;27.57;61.48;100665.44;5048553;28;20039;-78
2023/07/16 05:29:17;;;;;;;9.73;5.65;;;;;;;27.70;61.08;100670.34;5041680;28;20041;-77
2023/07/16 05:32:03;;;;;;;11.70;6.32;;;;;;;27.75;60.89;100667.81;5037323;28;20107;-78
2023/07/16 05:34:48;;;;;;;11.15;5.97;;;;;;;27.78;60.86;100663.38;5035957;28;20045;-77
2023/07/16 05:37:33;;;;;;;12.90;5.22;;;;;;;27.84;60.27;100667.22;5041157;28;20033;-78
2023/07/16 05:40:18;;;;;;;13.77;6.05;;;;;;;27.94;60.33;100666.97;5052492;28;20044;-78
2023/07/16 05:43:03;;;;;;;9.48;5.88;;;;;;;27.97;60.41;100677.31;5048396;28;20029;-78
2023/07/16 05:45:48;;;;;;;11.60;5.90;;;;;;;28.16;59.49;100683.28;5044848;28;20402;-78
2023/07/16 05:48:33;;;;;;;9.85;6.00;;;;;;;28.24;59.09;100684.69;5052421;28;20032;-78
2023/07/16 05:51:18;;;;;;;12.80;5.88;;;;;;;28.24;59.12;100691.06;5053395;28;20402;-78
2023/07/16 05:54:03;;;;;;;11.07;6.28;;;;;;;27.55;62.01;100695.00;5051672;28;20041;-77
2023/07/16 05:56:48;;;;;;;11.10;6.60;;;;;;;27.24;63.31;100697.22;5040994;28;20041;-77
2023/07/16 05:59:36;;;;;;;15.27;7.40;;;;;;;27.04;64.66;100700.00;5039353;28;20048;-78
2023/07/16 06:02:21;;;;;;;15.88;7.30;;;;;;;26.97;65.54;100716.88;5051826;28;20033;-77
2023/07/16 06:05:07;;;;;;;15.40;7.82;;;;;;;26.70;65.85;100711.38;5044784;28;20047;-77
2023/07/16 06:07:52;;;;;;;15.15;7.88;;;;;;;26.75;66.50;100722.03;5019223;28;20503;-78
2023/07/16 06:10:37;;;;;;;20.90;7.85;;;;;;;26.69;66.96;100717.38;5003201;28;20041;-77
2023/07/16 06:13:22;;;;;;;16.23;8.90;;;;;;;26.90;65.88;100721.81;5031825;28;20046;-77
2023/07/16 06:16:07;;;;;;;12.18;8.00;;;;;;;27.07;66.22;100738.22;5035001;28;20044;-78
2023/07/16 06:18:52;;;;;;;11.07;8.18;;;;;;;27.45;64.12;100730.31;5052132;28;20037;-77
2023/07/16 06:21:36;;;;;;;10.23;7.20;;;;;;;27.49;63.84;100728.25;5019755;28;20033;-78
2023/07/16 06:24:21;;;;;;;17.02;10.10;;;;;;;27.06;64.77;100736.66;5024918;28;20056;-78
2023/07/16 06:27:06;;;;;;;13.70;7.13;;;;;;;27.07;63.76;100741.00;5047024;28;20446;-77
2023/07/16 06:29:51;;;;;;;16.45;8.27;;;;;;;26.75;65.25;100738.78;5051739;28;20051;-78
2023/07/16 06:32:36;;;;;;;12.80;7.18;;;;;;;27.44;62.09;100741.91;5036340;28;20033;-78
2023/07/16 06:35:21;;;;;;;19.25;7.40;;;;;;;27.15;64.15;100741.69;5044554;28;20654;-78
2023/07/16 06:38:06;;;;;;;17.70;7.00;;;;;;;27.62;61.77;100742.38;5051194;28;20044;-78
2023/07/16 06:40:52;;;;;;;14.43;7.53;;;;;;;27.71;61.86;100747.38;5025963;28;20041;-78
2023/07/16 06:43:36;;;;;;;15.05;7.40;;;;;;;27.35;62.89;100742.47;5022571;28;20029;-77
2023/07/16 06:46:21;;;;;;;16.45;8.65;;;;;;;27.22;63.85;100738.75;5041495;28;20052;-82
2023/07/16 06:49:07;;;;;;;20.23;9.30;;;;;;;27.15;65.21;100759.22;5050510;28;20056;-79
2023/07/16 06:51:51;;;;;;;13.85;7.93;;;;;;;27.42;64.20;100759.13;5051422;28;20041;-78
2023/07/16 06:54:36;;;;;;;20.70;8.18;;;;;;;27.76;62.15;100744.06;5035994;28;20041;-78
2023/07/16 06:57:25;;;;;;;16.63;7.95;;;;;;;27.59;63.18;100748.81;5053344;28;20414;-79
2023/07/16 07:00:13;;;;;;;12.70;7.63;;;;;;;27.57;63.70;100748.47;5050272;28;20068;-78
2023/07/16 07:02:57;;;;;;;14.23;7.90;;;;;;;27.69;64.16;100744.22;5041976;28;20037;-78
2023/07/16 07:05:42;;;;;;;13.35;6.30;;;;;;;27.77;62.56;100749.25;5054426;28;20430;-78
2023/07/16 07:08:27;;;;;;;50.85;7.97;;;;;;;27.70;62.37;100740.19;5049867;28;20411;-78
2023/07/16 07:11:12;;;;;;;14.45;6.85;;;;;;;27.89;62.08;100744.97;5050323;28;20423;-79
2023/07/16 07:13:57;;;;;;;11.25;6.35;;;;;;;28.41;59.80;100756.19;5039842;28;20052;-78
2023/07/16 07:16:42;;;;;;;10.20;6.38;;;;;;;28.15;61.00;100746.03;5014907;28;20052;-78
2023/07/16 07:19:27;;;;;;;18.08;7.53;;;;;;;27.86;62.08;100743.84;5054443;28;20039;-78
2023/07/16 07:22:12;;;;;;;15.02;6.40;;;;;;;27.97;62.69;100749.19;5053409;28;20060;-78
2023/07/16 07:24:57;;;;;;;10.85;7.45;;;;;;;28.11;60.65;100742.50;5019482;28;20049;-78
2023/07/16 07:27:42;;;;;;;18.58;7.35;;;;;;;28.61;59.28;100745.69;5050578;28;20037;-78
2023/07/16 07:30:27;;;;;;;17.02;7.35;;;;;;;28.23;61.13;100739.84;5052683;28;20052;-78
2023/07/16 07:33:12;;;;;;;39.92;11.02;;;;;;;28.38;60.25;100743.88;5022563;28;20411;-77
2023/07/16 07:35:57;;;;;;;20.17;7.00;;;;;;;28.79;59.04;100740.47;5038993;28;20040;-79
2023/07/16 07:38:42;;;;;;;11.52;4.68;;;;;;;28.87;58.74;100741.84;5025657;28;20405;-79
2023/07/16 07:41:27;;;;;;;11.43;5.50;;;;;;;28.98;58.62;100740.78;5049419;28;20047;-79
2023/07/16 07:44:12;;;;;;;13.00;4.70;;;;;;;29.01;58.40;100743.50;5040315;28;20423;-79
2023/07/16 07:46:57;;;;;;;11.25;4.85;;;;;;;29.09;58.15;100738.50;5057698;28;20041;-79
2023/07/16 07:49:42;;;;;;;11.77;4.78;;;;;;;29.10;57.98;100746.47;5053905;28;20040;-84
2023/07/16 07:52:27;;;;;;;15.57;5.68;;;;;;;29.11;57.77;100745.22;5050822;28;20336;-85
2023/07/16 07:55:12;;;;;;;13.55;5.22;;;;;;;29.16;57.46;100744.69;5043803;28;20044;-83
2023/07/16 07:57:57;;;;;;;27.10;5.93;;;;;;;29.21;57.42;100752.53;5041601;28;20045;-79
2023/07/16 08:00:42;;;;;;;27.13;9.95;;;;;;;29.25;57.63;100752.47;5052706;28;20430;-81
2023/07/16 08:03:27;;;;;;;25.00;8.38;;;;;;;29.31;57.40;100756.31;5052204;28;20037;-80
2023/07/16 08:06:13;;;;;;;14.00;5.53;;;;;;;29.37;57.39;100748.16;5056284;28;20041;-79
2023/07/16 08:08:57;;;;;;;149.05;36.63;;;;;;;29.40;57.33;100759.28;5037814;28;20045;-79
2023/07/16 08:11:43;;;;;;;68.93;22.17;;;;;;;29.42;57.39;100748.38;5044173;28;20334;-79
2023/07/16 08:14:29;;;;;;;50.47;16.30;;;;;;;29.47;57.16;100753.44;5051623;28;20049;-79
2023/07/16 08:17:13;;;;;;;25.85;10.40;;;;;;;29.71;57.12;100745.56;5056254;28;20414;-79
2023/07/16 08:19:59;;;;;;;24.58;8.32;;;;;;;29.68;56.88;100746.44;5034351;28;20040;-79
2023/07/16 08:22:43;;;;;;;24.67;7.13;;;;;;;29.65;57.10;100748.13;5052294;28;20033;-78
2023/07/16 08:25:29;;;;;;;26.65;9.00;;;;;;;29.70;56.93;100753.19;5053136;28;20053;-78
2023/07/16 08:28:15;;;;;;;30.45;8.93;;;;;;;29.74;56.97;100751.06;5037102;28;20033;-78
2023/07/16 08:30:59;;;;;;;39.10;12.18;;;;;;;29.79;56.63;100746.13;5053132;28;20044;-79
2023/07/16 08:33:45;;;;;;;27.40;8.27;;;;;;;29.85;56.70;100752.75;5052903;28;20052;-79
2023/07/16 08:36:29;;;;;;;29.42;8.02;;;;;;;29.85;56.54;100753.56;5052326;28;20044;-79
2023/07/16 08:39:15;;;;;;;24.77;8.98;;;;;;;29.91;56.33;100757.41;5049192;28;20047;-79
2023/07/16 08:42:00;;;;;;;39.20;11.95;;;;;;;29.94;55.88;100750.09;5051871;28;20036;-78
2023/07/16 08:44:45;;;;;;;22.75;9.52;;;;;;;29.94;55.93;100758.53;5052958;28;20044;-78
2023/07/16 08:47:30;;;;;;;27.65;7.40;;;;;;;29.98;56.09;100754.38;5056195;28;20041;-79
2023/07/16 08:50:16;;;;;;;13.45;6.50;;;;;;;30.09;56.16;100762.47;5045871;28;20041;-78
2023/07/16 08:53:02;;;;;;;15.80;6.30;;;;;;;30.13;56.03;100755.50;5043910;28;20167;-79
2023/07/16 08:55:47;;;;;;;21.35;7.05;;;;;;;30.20;55.88;100756.50;5042397;28;20056;-79
2023/07/16 08:58:33;;;;;;;10.63;5.13;;;;;;;30.28;55.54;100755.84;5053091;28;20040;-79
2023/07/16 09:01:18;;;;;;;14.55;7.43;;;;;;;30.29;55.49;100751.78;5052653;28;20067;-79
2023/07/16 09:04:03;;;;;;;21.08;7.05;;;;;;;30.37;54.74;100761.56;5056751;28;20037;-79
2023/07/16 09:06:49;;;;;;;19.55;7.47;;;;;;;30.40;54.56;100757.06;5040345;28;20251;-79
2023/07/16 09:09:34;;;;;;;16.35;5.70;;;;;;;30.43;54.19;100759.75;5052680;28;20044;-79
2023/07/16 09:12:19;;;;;;;18.95;5.28;;;;;;;30.47;54.24;100757.66;5056334;28;20462;-79
2023/07/16 09:15:05;;;;;;;11.15;4.45;;;;;;;30.54;53.99;100751.81;5054650;28;20040;-78
2023/07/16 09:17:49;;;;;;;10.00;5.10;;;;;;;30.59;54.36;100754.03;5038374;28;20041;-78
2023/07/16 09:20:36;;;;;;;8.57;4.63;;;;;;;30.58;54.51;100757.28;5042448;28;20064;-79
2023/07/16 09:23:20;;;;;;;16.80;5.75;;;;;;;30.54;53.80;100751.81;5088445;23;20536;-78
2023/07/16 09:26:05;;;;;;;11.77;5.15;;;;;;;30.63;53.69;100747.53;5097219;28;20047;-79
2023/07/16 09:28:50;;;;;;;12.93;5.10;;;;;;;30.66;54.00;100755.03;5097020;28;20046;-79
2023/07/16 09:31:35;;;;;;;11.98;4.60;;;;;;;30.73;53.76;100758.38;5086056;28;20333;-78
2023/07/16 09:34:21;;;;;;;11.20;5.43;;;;;;;30.77;53.82;100752.66;5078383;28;20043;-79
2023/07/16 09:37:06;;;;;;;10.23;4.13;;;;;;;30.80;53.87;100763.78;5088608;28;20043;-78
2023/07/16 09:39:51;;;;;;;15.27;4.90;;;;;;;30.82;53.71;100758.50;5095218;28;20039;-78
2023/07/16 09:42:41;;;;;;;9.43;4.40;;;;;;;30.92;53.49;100762.97;5112483;28;20047;-79
2023/07/16 09:45:27;;;;;;;8.77;4.65;;;;;;;30.96;53.66;100763.63;5082082;28;20046;-79
2023/07/16 09:48:13;;;;;;;8.07;4.20;;;;;;;31.03;53.92;100757.00;5084997;28;20050;-79
2023/07/16 09:50:58;;;;;;;15.75;4.88;;;;;;;31.07;53.84;100756.88;5097091;28;20039;-79
2023/07/16 09:53:46;;;;;;;11.10;4.95;;;;;;;31.11;54.04;100761.13;5096505;28;20059;-79
2023/07/16 09:56:38;;;;;;;8.13;4.53;;;;;;;31.15;53.08;100758.19;5100976;28;20035;-79
2023/07/16 09:59:24;;;;;;;14.98;5.72;;;;;;;31.19;52.88;100761.66;5113672;28;20067;-79
2023/07/16 10:02:10;;;;;;;15.32;5.72;;;;;;;31.17;52.61;100759.31;5112762;28;20040;-79
2023/07/16 10:04:57;;;;;;;8.57;4.45;;;;;;;31.25;52.49;100755.00;5111616;28;20051;-79
2023/07/16 10:07:42;;;;;;;10.10;4.43;;;;;;;31.30;52.40;100751.59;5098762;28;20046;-79
2023/07/16 10:10:43;;;;;;;7.88;4.40;;;;;;;31.36;51.66;100754.59;5096910;28;20047;-79
2023/07/16 10:13:38;;;;;;;7.57;4.68;;;;;;;31.43;52.13;100754.34;5115978;28;20039;-79
2023/07/16 10:16:38;;;;;;;12.48;4.40;;;;;;;31.50;52.27;100753.28;5098019;28;20054;-79
2023/07/16 10:19:30;;;;;;;9.38;4.25;;;;;;;31.56;51.65;100746.63;5110771;28;20040;-79
2023/07/16 10:22:35;;;;;;;12.93;4.25;;;;;;;31.55;51.89;100739.44;5111311;28;20042;-79
2023/07/16 10:25:30;;;;;;;7.20;3.92;;;;;;;31.60;51.93;100749.31;5082314;28;20529;-79
2023/07/16 10:28:24;;;;;;;11.43;4.10;;;;;;;31.63;51.53;100745.63;5098629;28;20530;-79
2023/07/16 10:31:26;;;;;;;7.32;3.92;;;;;;;31.71;51.16;100746.91;5096400;28;20066;-79
2023/07/16 10:34:24;;;;;;;10.60;4.30;;;;;;;31.80;51.50;100750.53;5100207;28;20054;-78
2023/07/16 10:37:19;;;;;;;6.53;4.15;;;;;;;31.85;52.00;100746.34;5083444;28;20062;-79
2023/07/16 10:40:16;;;;;;;10.50;4.68;;;;;;;31.87;51.62;100748.72;5087494;28;20050;-79
2023/07/16 10:43:08;;;;;;;4.80;3.60;;;;;;;31.92;50.62;100745.28;5096511;28;20035;-79
2023/07/16 10:46:00;;;;;;;11.98;3.80;;;;;;;31.98;50.58;100747.06;5096353;28;20046;-78
2023/07/16 10:48:52;;;;;;;13.00;4.85;;;;;;;32.07;50.05;100735.84;5082751;28;20058;-79
2023/07/16 10:51:47;;;;;;;8.05;3.60;;;;;;;32.10;50.04;100745.41;5096132;28;20421;-79
2023/07/16 10:54:42;;;;;;;6.57;3.63;;;;;;;32.11;49.67;100742.13;5087611;28;20059;-79
2023/07/16 10:57:37;;;;;;;14.82;4.45;;;;;;;32.12;49.33;100735.25;5114243;28;20113;-79
2023/07/16 11:00:32;;;;;;;7.78;3.60;;;;;;;32.25;49.21;100740.78;5082828;28;20050;-79
2023/07/16 11:03:26;;;;;;;11.63;4.60;;;;;;;32.28;48.24;100741.88;5096075;28;20035;-79
2023/07/16 11:06:23;;;;;;;8.15;3.75;;;;;;;32.31;48.00;100749.38;5086459;28;20425;-79
2023/07/16 11:09:15;;;;;;;8.15;4.57;;;;;;;32.32;48.48;100746.13;5086108;28;20066;-80
2023/07/16 11:12:18;;;;;;;9.90;3.83;;;;;;;32.37;47.96;100741.91;5100212;28;20050;-79
2023/07/16 11:15:13;;;;;;;10.25;3.47;;;;;;;32.40;48.40;100738.19;5099987;28;20054;-79
2023/07/16 11:18:08;;;;;;;7.00;3.17;;;;;;;32.41;47.81;100740.50;5088780;28;20043;-79
2023/07/16 11:20:56;;;;;;;5.82;3.60;;;;;;;32.44;46.88;100744.44;5101365;28;20046;-79
2023/07/16 11:23:50;;;;;;;6.22;3.20;;;;;;;32.54;45.56;100741.19;5088087;28;20042;-79
2023/07/16 11:26:42;;;;;;;8.07;3.50;;;;;;;32.58;44.60;100746.66;5102430;28;20408;-79
2023/07/16 11:29:46;;;;;;;9.10;3.15;;;;;;;32.62;45.74;100739.63;5100255;28;20062;-79
2023/07/16 11:32:48;;;;;;;6.18;3.08;;;;;;;32.66;45.38;100731.06;5100174;28;20062;-79
2023/07/16 11:35:43;;;;;;;12.32;3.50;;;;;;;32.65;45.54;100721.84;5100965;28;20393;-79
2023/07/16 11:38:41;;;;;;;5.82;3.20;;;;;;;32.73;45.89;100729.97;5100917;28;20032;-79
2023/07/16 11:41:35;;;;;;;12.48;3.53;;;;;;;32.77;44.98;100728.56;5101687;28;20058;-79
2023/07/16 11:44:31;;;;;;;4.70;2.92;;;;;;;32.75;45.20;100725.44;5079040;28;20063;-79
2023/07/16 11:47:26;;;;;;;5.70;2.85;;;;;;;32.76;44.99;100721.38;5093871;28;20047;-79
2023/07/16 11:50:20;;;;;;;4.43;2.47;;;;;;;32.78;44.72;100716.06;5094450;28;20425;-79
2023/07/16 11:53:15;;;;;;;6.82;3.47;;;;;;;32.83;43.88;100725.91;5084079;28;20405;-79
2023/07/16 11:56:09;;;;;;;5.45;2.83;;;;;;;32.89;42.86;100724.03;5095565;28;20619;-78
2023/07/16 11:58:59;;;;;;;6.50;2.75;;;;;;;32.93;42.86;100721.84;5092779;28;20110;-79
2023/07/16 12:01:51;;;;;;;5.55;2.80;;;;;;;32.97;41.88;100728.09;5096839;28;20043;-79
2023/07/16 12:04:43;;;;;;;6.13;2.22;;;;;;;32.98;41.99;100722.00;5092011;28;20031;-79
2023/07/16 12:07:42;;;;;;;4.78;2.60;;;;;;;33.01;41.16;100720.31;5090947;28;20046;-79
2023/07/16 12:10:36;;;;;;;3.97;2.72;;;;;;;33.03;39.93;100721.38;5092097;28;20054;-79
2023/07/16 12:13:26;;;;;;;12.52;3.08;;;;;;;33.13;39.91;100710.09;5096698;28;20070;-79
2023/07/16 12:16:21;;;;;;;10.25;2.88;;;;;;;33.16;40.27;100710.00;5101036;28;20032;-79
2023/07/16 12:19:13;;;;;;;9.88;2.85;;;;;;;33.20;40.42;100712.63;5090535;28;20424;-79
2023/07/16 12:22:07;;;;;;;4.28;2.42;;;;;;;33.22;40.90;100719.34;5091489;28;20038;-79
2023/07/16 12:25:02;;;;;;;6.18;2.60;;;;;;;33.23;40.78;100720.94;5099770;28;20039;-79
2023/07/16 12:27:56;;;;;;;6.15;3.08;;;;;;;33.28;41.43;100706.19;5099542;28;20038;-79
2023/07/16 12:30:52;;;;;;;9.43;3.33;;;;;;;33.30;42.16;100712.16;5117278;28;20405;-79
2023/07/16 12:33:47;;;;;;;5.18;2.60;;;;;;;33.34;42.14;100703.53;5099828;28;20551;-78
2023/07/16 12:36:41;;;;;;;5.40;2.97;;;;;;;33.37;42.54;100697.72;5098137;28;20051;-79
2023/07/16 12:39:35;;;;;;;6.35;2.97;;;;;;;33.41;42.15;100698.34;5081976;28;20094;-79
2023/07/16 12:42:29;;;;;;;18.52;2.83;;;;;;;33.43;41.75;100695.03;5079667;28;20055;-79
2023/07/16 12:45:25;;;;;;;8.95;3.40;;;;;;;33.42;42.83;100693.50;5092351;28;20040;-79
2023/07/16 12:48:19;;;;;;;6.85;2.70;;;;;;;33.45;42.41;100706.66;5080119;28;20536;-79
2023/07/16 12:51:14;;;;;;;7.28;2.55;;;;;;;33.47;42.25;100699.25;5098169;28;20043;-79